createdAt,value
2019-05-19T00:01:36.601Z,38.50
2019-05-19T00:04:10.810Z,38.90
2019-05-19T00:06:45.121Z,36.70
2019-05-19T00:09:19.814Z,41.28
2019-05-19T00:11:53.795Z,30.68
2019-05-19T00:14:28.054Z,27.22
2019-05-19T00:17:02.363Z,27.77
2019-05-19T00:19:36.550Z,27.60
2019-05-19T00:22:10.865Z,28.42
2019-05-19T00:24:45.092Z,26.87
2019-05-19T00:27:19.027Z,33.85
2019-05-19T00:29:53.090Z,37.48
2019-05-19T00:35:00.528Z,34.75
2019-05-19T00:37:34.904Z,34.98
2019-05-19T00:40:09.367Z,35.68
2019-05-19T00:42:43.530Z,36.58
2019-05-19T00:45:18.798Z,39.50
2019-05-19T00:47:52.908Z,38.55
2019-05-19T00:53:00.231Z,46.83
2019-05-19T00:58:08.381Z,42.25
2019-05-19T01:00:42.559Z,39.33
2019-05-19T01:03:16.808Z,39.30
2019-05-19T01:05:50.977Z,39.00
2019-05-19T01:10:58.398Z,35.63
2019-05-19T01:16:05.836Z,34.67
2019-05-19T01:18:40.121Z,34.35
2019-05-19T01:21:16.001Z,36.17
2019-05-19T01:23:50.323Z,34.85
2019-05-19T01:26:24.867Z,34.25
2019-05-19T01:28:58.941Z,34.45
2019-05-19T01:34:07.809Z,36.13
2019-05-19T01:36:41.827Z,35.78
2019-05-19T01:41:49.809Z,34.38
2019-05-19T01:44:24.383Z,34.33
2019-05-19T01:46:58.662Z,34.92
2019-05-19T01:49:32.814Z,34.95
2019-05-19T01:52:07.010Z,35.88
2019-05-19T01:54:41.174Z,32.85
2019-05-19T01:59:48.720Z,32.45
2019-05-19T02:05:16.416Z,31.17
2019-05-19T02:07:50.349Z,32.10
2019-05-19T02:10:24.400Z,31.65
2019-05-19T02:15:32.102Z,31.52
2019-05-19T02:18:06.193Z,35.20
2019-05-19T02:23:14.184Z,37.48
2019-05-19T02:25:48.358Z,38.98
2019-05-19T02:28:22.391Z,42.30
2019-05-19T02:30:56.673Z,42.05
2019-05-19T02:36:03.811Z,43.00
2019-05-19T02:38:37.940Z,44.80
2019-05-19T02:43:47.177Z,44.03
2019-05-19T02:46:22.803Z,45.33
2019-05-19T02:48:58.364Z,48.13
2019-05-19T02:51:34.940Z,51.70
2019-05-19T02:54:10.162Z,42.00
2019-05-19T02:56:46.962Z,49.88
2019-05-19T02:59:23.411Z,46.98
2019-05-19T03:02:02.020Z,49.40
2019-05-19T03:04:35.965Z,48.25
2019-05-19T03:07:09.923Z,45.58
2019-05-19T03:09:43.754Z,42.43
2019-05-19T03:12:17.652Z,46.10
2019-05-19T03:14:51.482Z,46.53
2019-05-19T03:17:25.533Z,46.37
2019-05-19T03:22:32.493Z,42.33
2019-05-19T03:25:09.478Z,42.88
2019-05-19T03:27:43.367Z,41.80
2019-05-19T03:30:27.949Z,40.33
2019-05-19T03:33:09.282Z,38.50
2019-05-19T03:35:43.138Z,37.53
2019-05-19T03:38:17.106Z,36.65
2019-05-19T03:40:51.061Z,34.27
2019-05-19T03:43:25.009Z,32.13
2019-05-19T03:45:58.896Z,31.07
2019-05-19T03:48:32.824Z,30.77
2019-05-19T03:51:06.784Z,29.63
2019-05-19T03:53:40.817Z,30.88
2019-05-19T03:56:14.718Z,29.67
2019-05-19T03:58:48.847Z,30.43
2019-05-19T04:03:55.935Z,30.00
2019-05-19T04:06:29.897Z,32.85
2019-05-19T04:09:05.530Z,31.05
2019-05-19T04:11:39.402Z,30.55
2019-05-19T04:14:13.280Z,32.60
2019-05-19T04:16:48.678Z,30.48
2019-05-19T04:19:22.600Z,30.17
2019-05-19T04:21:56.459Z,29.23
2019-05-19T04:24:30.403Z,29.40
2019-05-19T04:27:04.380Z,30.77
2019-05-19T04:32:13.178Z,29.50
2019-05-19T04:37:20.036Z,30.92
2019-05-19T04:39:54.067Z,37.53
2019-05-19T04:42:27.928Z,36.40
2019-05-19T04:45:01.772Z,38.28
2019-05-19T04:47:35.836Z,40.67
2019-05-19T04:52:43.197Z,30.90
2019-05-19T04:55:17.107Z,31.05
2019-05-19T04:57:51.101Z,30.45
2019-05-19T05:02:58.002Z,26.10
2019-05-19T05:05:31.984Z,27.30
2019-05-19T05:08:05.821Z,26.23
2019-05-19T05:10:39.733Z,26.52
2019-05-19T05:13:13.721Z,26.50
2019-05-19T05:15:47.558Z,25.23
2019-05-19T05:18:21.460Z,27.13
2019-05-19T05:20:55.445Z,26.75
2019-05-19T05:26:02.899Z,22.48
2019-05-19T05:31:10.312Z,24.18
2019-05-19T05:33:44.276Z,22.05
2019-05-19T05:36:18.721Z,22.48
2019-05-19T05:38:52.620Z,22.22
2019-05-19T05:41:26.510Z,22.13
2019-05-19T05:44:01.059Z,21.37
2019-05-19T05:46:34.988Z,21.57
2019-05-19T05:49:08.966Z,23.22
2019-05-19T05:54:16.350Z,21.12
2019-05-19T05:56:51.743Z,21.10
2019-05-19T05:59:25.802Z,21.15
2019-05-19T06:01:59.819Z,20.77
2019-05-19T06:07:07.144Z,21.30
2019-05-19T06:12:14.304Z,19.60
2019-05-19T06:17:21.399Z,16.70
2019-05-19T06:22:29.172Z,16.15
2019-05-19T06:25:03.209Z,15.55
2019-05-19T06:30:10.822Z,14.68
2019-05-19T06:32:49.446Z,15.25
2019-05-19T06:35:23.593Z,16.32
2019-05-19T06:40:30.991Z,16.70
2019-05-19T06:43:05.522Z,16.32
2019-05-19T06:48:14.293Z,18.20
2019-05-19T06:50:48.307Z,18.80
2019-05-19T06:55:55.589Z,17.15
2019-05-19T07:01:02.999Z,16.77
2019-05-19T07:06:12.845Z,17.10
2019-05-19T07:08:46.768Z,16.23
2019-05-19T07:11:20.992Z,16.73
2019-05-19T07:13:55.208Z,16.60
2019-05-19T07:16:29.188Z,17.48
2019-05-19T07:19:03.221Z,15.78
2019-05-19T07:21:37.549Z,16.85
2019-05-19T07:24:11.569Z,16.95
2019-05-19T07:29:20.640Z,16.77
2019-05-19T07:31:56.123Z,17.30
2019-05-19T07:34:30.447Z,16.87
2019-05-19T07:37:04.485Z,16.73
2019-05-19T07:42:11.904Z,17.05
2019-05-19T07:47:19.974Z,16.55
2019-05-19T07:49:54.211Z,16.85
2019-05-19T07:52:28.623Z,17.10
2019-05-19T07:55:02.868Z,16.95
2019-05-19T07:57:36.965Z,16.87
2019-05-19T08:02:44.496Z,17.45
2019-05-19T08:05:18.438Z,16.65
2019-05-19T08:07:52.577Z,17.12
2019-05-19T08:10:26.648Z,17.75
2019-05-19T08:15:33.956Z,17.35
2019-05-19T08:18:07.943Z,16.60
2019-05-19T08:20:42.093Z,17.95
2019-05-19T08:23:16.136Z,17.73
2019-05-19T08:28:23.602Z,22.48
2019-05-19T08:30:57.564Z,18.48
2019-05-19T08:33:31.590Z,19.02
2019-05-19T08:38:39.096Z,18.57
2019-05-19T08:41:13.265Z,19.50
2019-05-19T08:43:47.423Z,19.77
2019-05-19T08:46:21.548Z,19.25
2019-05-19T08:51:32.010Z,23.15
2019-05-19T08:54:14.238Z,22.55
2019-05-19T08:56:42.194Z,24.65
2019-05-19T08:59:16.308Z,21.42
2019-05-19T09:01:50.446Z,23.12
2019-05-19T09:04:24.413Z,23.52
2019-05-19T09:06:58.343Z,24.07
2019-05-19T09:09:32.356Z,23.32
2019-05-19T09:14:39.751Z,24.32
2019-05-19T09:17:13.716Z,23.50
2019-05-19T09:19:47.631Z,24.23
2019-05-19T09:22:21.556Z,22.15
2019-05-19T09:24:55.474Z,22.77
2019-05-19T09:27:29.360Z,23.20
2019-05-19T09:30:03.489Z,23.05
2019-05-19T09:35:10.868Z,24.95
2019-05-19T09:37:47.864Z,22.27
2019-05-19T09:40:21.937Z,22.73
2019-05-19T09:42:55.986Z,23.05
2019-05-19T09:45:30.073Z,23.52
2019-05-19T09:50:37.344Z,22.95
2019-05-19T09:53:11.332Z,22.95
2019-05-19T09:55:45.142Z,22.15
2019-05-19T09:58:20.241Z,21.87
2019-05-19T10:00:54.545Z,20.48
2019-05-19T10:06:01.651Z,19.82
2019-05-19T10:08:39.186Z,19.17
2019-05-19T10:11:22.513Z,21.00
2019-05-19T10:13:56.782Z,20.77
2019-05-19T10:16:30.960Z,20.88
2019-05-19T10:19:05.210Z,21.65
2019-05-19T10:21:39.264Z,20.55
2019-05-19T10:26:47.286Z,20.45
2019-05-19T10:29:21.257Z,21.45
2019-05-19T10:31:55.285Z,29.35
2019-05-19T10:37:02.368Z,23.67
2019-05-19T10:39:36.892Z,20.85
2019-05-19T10:42:11.398Z,22.20
2019-05-19T10:44:45.465Z,22.10
2019-05-19T10:49:53.092Z,21.35
2019-05-19T10:52:27.137Z,20.30
2019-05-19T10:57:34.808Z,19.07
2019-05-19T11:00:09.457Z,18.57
2019-05-19T11:02:43.910Z,18.35
2019-05-19T11:05:18.012Z,19.12
2019-05-19T11:10:27.387Z,19.00
2019-05-19T11:13:01.463Z,17.37
2019-05-19T11:18:08.694Z,18.25
2019-05-19T11:23:16.605Z,19.90
2019-05-19T11:25:51.869Z,19.55
2019-05-19T11:28:26.210Z,19.98
2019-05-19T11:31:00.194Z,22.13
2019-05-19T11:33:34.340Z,22.70
2019-05-19T11:36:09.023Z,22.95
2019-05-19T11:38:43.332Z,22.35
2019-05-19T11:41:17.516Z,23.05
2019-05-19T11:43:51.815Z,22.77
2019-05-19T11:46:26.274Z,21.77
2019-05-19T11:49:01.940Z,21.30
2019-05-19T11:51:35.765Z,20.70
2019-05-19T11:54:09.990Z,22.17
2019-05-19T11:56:44.216Z,23.15
2019-05-19T11:59:18.148Z,22.00
2019-05-19T12:01:52.368Z,21.93
2019-05-19T12:04:26.450Z,22.07
2019-05-19T12:09:33.811Z,21.52
2019-05-19T12:14:41.342Z,20.85
2019-05-19T12:17:15.655Z,22.87
2019-05-19T12:19:49.913Z,21.12
2019-05-19T12:22:24.052Z,20.48
2019-05-19T12:27:31.526Z,19.85
2019-05-19T12:30:08.451Z,21.02
2019-05-19T12:32:42.420Z,22.15
2019-05-19T12:35:16.937Z,24.95
2019-05-19T12:37:51.624Z,21.93
2019-05-19T12:40:25.608Z,28.40
2019-05-19T12:42:59.569Z,22.35
2019-05-19T12:45:33.847Z,21.05
2019-05-19T12:48:08.019Z,24.60
2019-05-19T12:53:15.314Z,21.77
2019-05-19T12:55:49.676Z,22.15
2019-05-19T12:58:23.718Z,20.95
2019-05-19T13:03:31.143Z,21.35
2019-05-19T13:08:39.825Z,23.32
2019-05-19T13:11:13.872Z,21.80
2019-05-19T13:16:21.678Z,20.62
2019-05-19T13:18:56.063Z,19.55
2019-05-19T13:21:30.060Z,19.48
2019-05-19T13:26:37.141Z,19.55
2019-05-19T13:29:11.342Z,17.80
2019-05-19T13:31:46.203Z,17.37
2019-05-19T13:34:21.327Z,16.67
2019-05-19T13:36:57.188Z,15.95
2019-05-19T13:39:31.888Z,17.23
2019-05-19T13:42:06.531Z,17.27
2019-05-19T13:44:40.685Z,17.70
2019-05-19T13:47:15.152Z,18.50
2019-05-19T13:49:49.653Z,17.60
2019-05-19T13:52:23.955Z,16.85
2019-05-19T13:54:58.503Z,17.23
2019-05-19T13:57:32.558Z,18.35
2019-05-19T14:02:42.197Z,17.10
2019-05-19T14:07:49.778Z,16.95
2019-05-19T14:10:23.879Z,20.90
2019-05-19T14:15:31.570Z,17.77
2019-05-19T14:18:05.622Z,16.23
2019-05-19T14:23:13.065Z,16.87
2019-05-19T14:25:47.314Z,15.53
2019-05-19T14:28:21.246Z,15.18
2019-05-19T14:30:55.369Z,15.10
2019-05-19T14:33:29.356Z,15.45
2019-05-19T14:36:03.722Z,16.02
2019-05-19T14:38:39.457Z,17.02
2019-05-19T14:41:13.559Z,17.65
2019-05-19T14:43:47.610Z,17.90
2019-05-19T14:48:55.076Z,19.77
2019-05-19T14:51:29.657Z,20.02
2019-05-19T14:54:04.424Z,19.85
2019-05-19T14:56:39.821Z,20.52
2019-05-19T14:59:14.006Z,19.70
2019-05-19T15:01:48.320Z,19.65
2019-05-19T15:04:22.910Z,19.92
2019-05-19T15:06:58.264Z,21.25
2019-05-19T15:09:33.058Z,22.98
2019-05-19T15:12:07.366Z,23.07
2019-05-19T15:14:41.776Z,22.80
2019-05-19T15:17:16.026Z,22.62
2019-05-19T15:19:50.607Z,22.48
2019-05-19T15:22:25.149Z,21.73
2019-05-19T15:24:59.692Z,21.45
2019-05-19T15:27:33.842Z,22.60
2019-05-19T15:32:45.770Z,19.67
2019-05-19T15:35:20.011Z,20.08
2019-05-19T15:37:54.081Z,19.30
2019-05-19T15:43:01.871Z,17.70
2019-05-19T15:45:36.234Z,18.20
2019-05-19T15:50:43.710Z,19.27
2019-05-19T15:53:17.778Z,20.40
2019-05-19T15:58:25.234Z,21.70
2019-05-19T16:03:32.460Z,23.35
2019-05-19T16:06:06.908Z,24.05
2019-05-19T16:08:41.766Z,24.32
2019-05-19T16:11:15.875Z,23.62
2019-05-19T16:16:23.679Z,23.32
2019-05-19T16:18:57.839Z,22.60
2019-05-19T16:21:32.308Z,23.85
2019-05-19T16:24:06.753Z,24.95
2019-05-19T16:26:40.860Z,26.23
2019-05-19T16:31:48.884Z,25.68
2019-05-19T16:34:23.081Z,27.13
2019-05-19T16:36:57.175Z,28.12
2019-05-19T16:42:04.456Z,25.82
2019-05-19T16:47:12.024Z,24.32
2019-05-19T16:49:46.015Z,23.65
2019-05-19T16:52:20.576Z,23.85
2019-05-19T16:55:12.754Z,24.70
2019-05-19T16:57:46.681Z,25.08
2019-05-19T17:00:21.233Z,26.60
2019-05-19T17:02:55.106Z,26.45
2019-05-19T17:05:28.915Z,28.17
2019-05-19T17:08:03.021Z,28.38
2019-05-19T17:10:36.959Z,26.77
2019-05-19T17:13:10.848Z,28.30
2019-05-19T17:15:44.750Z,30.10
2019-05-19T17:18:18.587Z,32.80
2019-05-19T17:20:52.670Z,33.67
2019-05-19T17:25:59.804Z,33.02
2019-05-19T17:28:34.289Z,35.43
2019-05-19T17:31:11.429Z,41.75
2019-05-19T17:33:45.696Z,36.68
2019-05-19T17:36:20.202Z,41.25
2019-05-19T17:38:54.231Z,45.10
2019-05-19T17:44:02.195Z,38.85
2019-05-19T17:46:36.473Z,42.23
2019-05-19T17:49:10.942Z,42.55
2019-05-19T17:51:45.168Z,41.18
2019-05-19T17:54:20.228Z,41.20
2019-05-19T17:56:55.278Z,41.77
2019-05-19T17:59:29.878Z,37.80
2019-05-19T18:02:04.124Z,40.17
2019-05-19T18:04:38.246Z,39.33
2019-05-19T18:09:45.561Z,43.33
2019-05-19T18:12:19.464Z,48.65
2019-05-19T18:14:54.155Z,48.55
2019-05-19T18:17:28.374Z,47.73
2019-05-19T18:20:02.710Z,46.13
2019-05-19T18:22:36.960Z,44.25
2019-05-19T18:25:11.288Z,42.62
2019-05-19T18:27:45.450Z,80.35
2019-05-19T18:30:20.082Z,48.13
2019-05-19T18:32:54.228Z,44.30
2019-05-19T18:35:28.470Z,44.08
2019-05-19T18:38:04.182Z,43.75
2019-05-19T18:40:38.354Z,41.60
2019-05-19T18:45:48.964Z,41.08
2019-05-19T18:48:23.598Z,41.37
2019-05-19T18:50:58.113Z,42.40
2019-05-19T18:53:32.483Z,43.08
2019-05-19T18:56:07.914Z,46.00
2019-05-19T18:58:42.141Z,49.18
2019-05-19T19:01:16.571Z,49.50
2019-05-19T19:03:50.854Z,46.18
2019-05-19T19:06:26.781Z,50.33
2019-05-19T19:09:00.976Z,46.00
2019-05-19T19:11:35.391Z,43.73
2019-05-19T19:14:09.760Z,44.85
2019-05-19T19:16:44.022Z,46.85
2019-05-19T19:19:18.316Z,45.60
2019-05-19T19:21:52.727Z,42.67
2019-05-19T19:24:26.887Z,47.03
2019-05-19T19:29:34.280Z,45.10
2019-05-19T19:32:08.364Z,60.15
2019-05-19T19:37:16.208Z,49.03
2019-05-19T19:39:50.422Z,50.73
2019-05-19T19:42:24.542Z,53.63
2019-05-19T19:47:31.864Z,56.83
2019-05-19T19:50:06.710Z,57.43
2019-05-19T19:52:40.756Z,57.62
2019-05-19T19:57:48.109Z,46.00
2019-05-19T20:00:43.126Z,48.78
2019-05-19T20:03:17.423Z,51.53
2019-05-19T20:05:51.489Z,53.28
2019-05-19T20:10:58.740Z,42.80
2019-05-19T20:13:32.774Z,54.53
2019-05-19T20:18:39.870Z,50.15
2019-05-19T20:21:13.831Z,55.78
2019-05-19T20:23:47.947Z,51.92
2019-05-19T20:28:55.091Z,37.05
2019-05-19T20:31:31.451Z,41.68
2019-05-19T20:34:05.217Z,43.92
2019-05-19T20:36:39.422Z,41.33
2019-05-19T20:39:13.478Z,44.03
2019-05-19T20:44:20.923Z,38.17
2019-05-19T20:49:28.123Z,41.63
2019-05-19T20:54:35.630Z,39.45
2019-05-19T20:57:09.499Z,39.13
2019-05-19T20:59:43.467Z,45.83
2019-05-19T21:02:17.309Z,55.12
2019-05-19T21:04:51.458Z,63.78
2019-05-19T21:07:25.404Z,58.70
2019-05-19T21:09:59.414Z,53.83
2019-05-19T21:12:33.288Z,65.87
2019-05-19T21:15:07.493Z,60.28
2019-05-19T21:17:41.427Z,60.70
2019-05-19T21:20:15.457Z,59.38
2019-05-19T21:22:49.649Z,53.60
2019-05-19T21:27:56.878Z,51.68
2019-05-19T21:33:04.108Z,48.17
2019-05-19T21:38:11.203Z,47.55
2019-05-19T21:40:45.126Z,45.10
2019-05-19T21:43:19.142Z,46.90
2019-05-19T21:48:33.485Z,39.78
2019-05-19T21:51:07.351Z,57.55
2019-05-19T21:53:41.497Z,47.55
2019-05-19T21:58:48.821Z,46.63
2019-05-19T22:01:23.755Z,45.25
2019-05-19T22:03:57.992Z,51.10
2019-05-19T22:09:07.103Z,58.98
2019-05-19T22:11:40.946Z,53.63
2019-05-19T22:14:15.088Z,57.20
2019-05-19T22:19:22.380Z,52.45
2019-05-19T22:24:29.428Z,49.45
2019-05-19T22:29:36.426Z,51.65
2019-05-19T22:32:10.319Z,45.75
2019-05-19T22:34:44.317Z,47.20
2019-05-19T22:39:51.581Z,41.25
2019-05-19T22:44:58.691Z,39.40
2019-05-19T22:50:08.036Z,40.90
2019-05-19T22:52:41.857Z,41.65
2019-05-19T22:55:16.063Z,43.87
2019-05-19T22:57:49.982Z,42.85
2019-05-19T23:00:25.716Z,49.25
2019-05-19T23:02:59.529Z,46.23
2019-05-19T23:05:33.407Z,45.92
2019-05-19T23:08:07.374Z,42.48
2019-05-19T23:13:14.504Z,45.67
2019-05-19T23:15:48.556Z,44.35
2019-05-19T23:20:55.530Z,43.35
2019-05-19T23:23:29.320Z,41.00
2019-05-19T23:26:03.222Z,41.15
2019-05-19T23:28:37.033Z,39.80
2019-05-19T23:31:10.917Z,42.10
2019-05-19T23:33:44.712Z,37.13
2019-05-19T23:36:18.567Z,37.55
2019-05-19T23:38:52.398Z,35.65
2019-05-19T23:41:26.275Z,41.85
2019-05-19T23:44:00.079Z,44.73
2019-05-19T23:46:34.035Z,43.02
2019-05-19T23:49:07.862Z,40.28
2019-05-19T23:51:41.880Z,37.90
2019-05-19T23:56:48.833Z,49.30
2019-05-19T23:59:22.698Z,56.42
